الصفحة الرئيسية
صور الأقمار الصناعية توقعات الطقس لمدة 15 يوممناخالتوقعات البحرية إعصار برق مطارأسئلة وأجوبة النشرة الإخبارية حول
طقس : أوروبا أفريقيا أمريكا الشمالية أمريكا الجنوبية آسيا أستراليا-أوقيانوسيا آخرون
لغات جهة اتصال

سكاكا, السعودية

دائرة عرض: 29-47N, خط طول: 040-06E, ارتفاع: 689 m


METAR: OESK 180000Z 13006KT CAVOK 08/02 Q1025 NOSIG
TAF: OESK 172230Z 1800/1906 VRB03KT 8000 FEW040 TEMPO 1800/1808 3000 BR FEW020 BECMG 1808/1810 19012KT

زمن: 03:39 (00:39 UTC)

مراقبة الطقس الحالي

تاريخ و وقت الإصدار 39 دقيقة قبل الساعة 00:00 UTC
ريح 6 kt من الجنوب الشرقي
درجة الحرارة 8°C
الرطوبة 66%
ضغط 1025 hPa
الرؤية 10 كم أو أكثر
الغيوم لا تقل 1500 م وليس السحاب الأسود

تغيير وحدة

توقعات

تاريخ و وقت الإصدار 2 ساعات و 9 دقيقة قبل الساعة 22:30 UTC
صالحة من التوقعات 18 في 00 بالتوقيت العالمي إلى 19 في 06 بالتوقيت العالمي
ريح 3 ktمتغير
الرؤية: 8000 m
غيوم متفرقة على ارتفاع 4000 ft
مؤقت
من 18 في 00 بالتوقيت العالمي إلى 18 في 08 بالتوقيت العالمي
الرؤية: 3000 m
غيوم متفرقة على ارتفاع 2000 ft
غشاء
أصبح
من 18 في 08 بالتوقيت العالمي إلى 18 في 10 بالتوقيت العالمي
ريح 12 kt من الجنوب
المعلومات الواردة في هذا الموقع يخضع إخلاء
طقس : أوروبا أفريقيا أمريكا الشمالية أمريكا الجنوبية آسيا أستراليا-أوقيانوسيا آخرون
صور الأقمار الصناعية توقعات الطقس لمدة 15 يوممناخالتوقعات البحرية إعصار برق مطارأسئلة وأجوبة لغات جهة اتصال النشرة الإخبارية حول